sensor_id;sensor_type;location;lat;lon;timestamp;pressure;altitude;pressure_sealevel;temperature;humidity
73860;BME280;62197;51.632;13.700;2022-07-23T00:01:27;100467.81;;;17.48;77.64
73860;BME280;62197;51.632;13.700;2022-07-23T00:03:54;100475.59;;;17.56;77.45
73860;BME280;62197;51.632;13.700;2022-07-23T00:06:20;100482.31;;;17.50;78.09
73860;BME280;62197;51.632;13.700;2022-07-23T00:08:45;100465.06;;;17.38;78.12
73860;BME280;62197;51.632;13.700;2022-07-23T00:11:10;100471.75;;;17.37;78.50
73860;BME280;62197;51.632;13.700;2022-07-23T00:13:36;100471.50;;;17.34;78.63
73860;BME280;62197;51.632;13.700;2022-07-23T00:16:01;100466.78;;;17.29;78.62
73860;BME280;62197;51.632;13.700;2022-07-23T00:18:27;100467.66;;;17.25;78.86
73860;BME280;62197;51.632;13.700;2022-07-23T00:20:52;100459.81;;;17.27;78.73
73860;BME280;62197;51.632;13.700;2022-07-23T00:23:18;100463.69;;;17.31;78.99
73860;BME280;62197;51.632;13.700;2022-07-23T00:25:43;100469.59;;;17.24;78.87
73860;BME280;62197;51.632;13.700;2022-07-23T00:28:10;100469.06;;;17.22;79.04
73860;BME280;62197;51.632;13.700;2022-07-23T00:30:35;100460.69;;;17.22;78.92
73860;BME280;62197;51.632;13.700;2022-07-23T00:33:03;100455.66;;;17.24;78.97
73860;BME280;62197;51.632;13.700;2022-07-23T00:35:31;100453.72;;;17.25;79.17
73860;BME280;62197;51.632;13.700;2022-07-23T00:37:58;100463.19;;;17.24;79.26
73860;BME280;62197;51.632;13.700;2022-07-23T00:40:24;100459.03;;;17.16;79.23
73860;BME280;62197;51.632;13.700;2022-07-23T00:42:50;100453.50;;;17.11;79.71
73860;BME280;62197;51.632;13.700;2022-07-23T00:45:16;100454.63;;;17.05;80.09
73860;BME280;62197;51.632;13.700;2022-07-23T00:47:41;100451.25;;;17.08;80.17
73860;BME280;62197;51.632;13.700;2022-07-23T00:50:08;100462.91;;;17.15;79.44
73860;BME280;62197;51.632;13.700;2022-07-23T00:52:34;100467.38;;;17.21;79.42
73860;BME280;62197;51.632;13.700;2022-07-23T00:55:00;100465.13;;;17.23;79.44
73860;BME280;62197;51.632;13.700;2022-07-23T00:57:26;100460.34;;;17.29;79.11
73860;BME280;62197;51.632;13.700;2022-07-23T00:59:51;100457.84;;;17.32;78.82
73860;BME280;62197;51.632;13.700;2022-07-23T01:02:17;100455.09;;;17.22;79.08
73860;BME280;62197;51.632;13.700;2022-07-23T01:04:42;100456.25;;;17.16;79.64
73860;BME280;62197;51.632;13.700;2022-07-23T01:07:08;100441.78;;;17.04;79.91
73860;BME280;62197;51.632;13.700;2022-07-23T01:09:33;100459.03;;;17.16;79.59
73860;BME280;62197;51.632;13.700;2022-07-23T01:11:59;100462.34;;;17.23;79.53
73860;BME280;62197;51.632;13.700;2022-07-23T01:14:24;100458.75;;;17.17;80.25
73860;BME280;62197;51.632;13.700;2022-07-23T01:16:50;100454.81;;;17.24;79.70
73860;BME280;62197;51.632;13.700;2022-07-23T01:19:16;100447.28;;;17.19;79.67
73860;BME280;62197;51.632;13.700;2022-07-23T01:21:43;100448.97;;;17.15;79.86
73860;BME280;62197;51.632;13.700;2022-07-23T01:24:09;100443.94;;;17.17;80.32
73860;BME280;62197;51.632;13.700;2022-07-23T01:26:36;100437.88;;;17.05;80.89
73860;BME280;62197;51.632;13.700;2022-07-23T01:29:02;100434.03;;;16.91;81.07
73860;BME280;62197;51.632;13.700;2022-07-23T01:31:27;100425.13;;;16.89;81.63
73860;BME280;62197;51.632;13.700;2022-07-23T01:33:52;100419.31;;;16.75;81.36
73860;BME280;62197;51.632;13.700;2022-07-23T01:36:18;100411.22;;;16.84;81.68
73860;BME280;62197;51.632;13.700;2022-07-23T01:38:43;100408.41;;;16.79;81.93
73860;BME280;62197;51.632;13.700;2022-07-23T01:41:09;100401.13;;;16.88;81.73
73860;BME280;62197;51.632;13.700;2022-07-23T01:43:35;100386.09;;;16.89;81.14
73860;BME280;62197;51.632;13.700;2022-07-23T01:46:00;100378.53;;;16.94;81.07
73860;BME280;62197;51.632;13.700;2022-07-23T01:48:25;100374.94;;;16.89;81.38
73860;BME280;62197;51.632;13.700;2022-07-23T01:50:51;100372.19;;;16.84;81.68
73860;BME280;62197;51.632;13.700;2022-07-23T01:53:16;100364.97;;;16.73;82.15
73860;BME280;62197;51.632;13.700;2022-07-23T01:55:42;100366.94;;;16.72;82.50
73860;BME280;62197;51.632;13.700;2022-07-23T01:58:07;100368.03;;;16.71;82.39
73860;BME280;62197;51.632;13.700;2022-07-23T02:00:32;100367.19;;;16.71;82.48
73860;BME280;62197;51.632;13.700;2022-07-23T02:02:58;100360.00;;;16.60;82.99
73860;BME280;62197;51.632;13.700;2022-07-23T02:05:27;100358.91;;;16.56;82.99
73860;BME280;62197;51.632;13.700;2022-07-23T02:07:54;100359.41;;;16.63;83.01
73860;BME280;62197;51.632;13.700;2022-07-23T02:10:20;100358.88;;;16.66;82.71
73860;BME280;62197;51.632;13.700;2022-07-23T02:12:45;100357.69;;;16.77;82.54
73860;BME280;62197;51.632;13.700;2022-07-23T02:15:10;100357.47;;;16.68;82.70
73860;BME280;62197;51.632;13.700;2022-07-23T02:17:36;100355.50;;;16.74;82.71
73860;BME280;62197;51.632;13.700;2022-07-23T02:20:02;100362.75;;;16.65;82.66
73860;BME280;62197;51.632;13.700;2022-07-23T02:22:27;100351.94;;;16.58;83.33
73860;BME280;62197;51.632;13.700;2022-07-23T02:24:53;100341.88;;;16.62;83.25
73860;BME280;62197;51.632;13.700;2022-07-23T02:27:18;100333.78;;;16.61;83.30
73860;BME280;62197;51.632;13.700;2022-07-23T02:29:44;100336.56;;;16.66;83.40
73860;BME280;62197;51.632;13.700;2022-07-23T02:32:09;100353.31;;;16.56;83.71
73860;BME280;62197;51.632;13.700;2022-07-23T02:34:34;100338.28;;;16.47;84.28
73860;BME280;62197;51.632;13.700;2022-07-23T02:37:00;100333.84;;;16.51;84.53
73860;BME280;62197;51.632;13.700;2022-07-23T02:39:25;100327.16;;;16.57;84.68
73860;BME280;62197;51.632;13.700;2022-07-23T02:41:51;100338.03;;;16.48;84.89
73860;BME280;62197;51.632;13.700;2022-07-23T02:44:16;100346.09;;;16.50;84.55
73860;BME280;62197;51.632;13.700;2022-07-23T02:46:41;100342.69;;;16.63;84.27
73860;BME280;62197;51.632;13.700;2022-07-23T02:49:07;100338.56;;;16.60;84.39
73860;BME280;62197;51.632;13.700;2022-07-23T02:51:32;100338.28;;;16.57;84.37
73860;BME280;62197;51.632;13.700;2022-07-23T02:53:58;100338.28;;;16.52;84.65
73860;BME280;62197;51.632;13.700;2022-07-23T02:56:23;100338.00;;;16.53;84.44
73860;BME280;62197;51.632;13.700;2022-07-23T02:58:48;100340.75;;;16.63;83.67
73860;BME280;62197;51.632;13.700;2022-07-23T03:01:14;100338.19;;;16.77;83.33
73860;BME280;62197;51.632;13.700;2022-07-23T03:03:39;100339.91;;;16.68;83.50
73860;BME280;62197;51.632;13.700;2022-07-23T03:06:05;100322.94;;;16.64;83.83
73860;BME280;62197;51.632;13.700;2022-07-23T03:08:30;100327.13;;;16.62;83.78
73860;BME280;62197;51.632;13.700;2022-07-23T03:10:55;100326.53;;;16.65;83.80
73860;BME280;62197;51.632;13.700;2022-07-23T03:13:21;100330.38;;;16.79;82.88
73860;BME280;62197;51.632;13.700;2022-07-23T03:15:46;100327.63;;;16.74;82.80
73860;BME280;62197;51.632;13.700;2022-07-23T03:18:12;100333.97;;;16.84;82.59
73860;BME280;62197;51.632;13.700;2022-07-23T03:20:37;100342.38;;;16.74;82.60
73860;BME280;62197;51.632;13.700;2022-07-23T03:23:02;100332.66;;;16.72;83.03
73860;BME280;62197;51.632;13.700;2022-07-23T03:25:28;100317.63;;;16.68;83.11
73860;BME280;62197;51.632;13.700;2022-07-23T03:27:53;100321.50;;;16.67;83.58
73860;BME280;62197;51.632;13.700;2022-07-23T03:30:18;100312.59;;;16.65;83.17
73860;BME280;62197;51.632;13.700;2022-07-23T03:32:44;100320.41;;;16.63;83.45
73860;BME280;62197;51.632;13.700;2022-07-23T03:35:09;100333.75;;;16.71;83.33
73860;BME280;62197;51.632;13.700;2022-07-23T03:37:35;100340.31;;;17.00;82.03
73860;BME280;62197;51.632;13.700;2022-07-23T03:40:00;100360.03;;;17.19;81.81
73860;BME280;62197;51.632;13.700;2022-07-23T03:42:26;100349.72;;;17.14;81.96
73860;BME280;62197;51.632;13.700;2022-07-23T03:44:51;100331.94;;;17.00;82.64
73860;BME280;62197;51.632;13.700;2022-07-23T03:47:17;100335.63;;;16.95;83.08
73860;BME280;62197;51.632;13.700;2022-07-23T03:49:42;100343.66;;;17.02;83.19
73860;BME280;62197;51.632;13.700;2022-07-23T03:52:08;100355.38;;;16.94;83.68
73860;BME280;62197;51.632;13.700;2022-07-23T03:54:33;100356.50;;;16.98;84.17
73860;BME280;62197;51.632;13.700;2022-07-23T03:56:59;100360.72;;;16.90;83.99
73860;BME280;62197;51.632;13.700;2022-07-23T03:59:24;100361.59;;;16.86;84.08
73860;BME280;62197;51.632;13.700;2022-07-23T04:01:50;100374.97;;;16.84;83.73
73860;BME280;62197;51.632;13.700;2022-07-23T04:04:15;100384.72;;;16.81;83.73
73860;BME280;62197;51.632;13.700;2022-07-23T04:06:40;100420.66;;;16.88;83.83
73860;BME280;62197;51.632;13.700;2022-07-23T04:09:06;100428.31;;;17.21;82.53
73860;BME280;62197;51.632;13.700;2022-07-23T04:11:31;100413.78;;;17.29;81.86
73860;BME280;62197;51.632;13.700;2022-07-23T04:13:56;100358.72;;;17.01;83.70
73860;BME280;62197;51.632;13.700;2022-07-23T04:16:22;100352.63;;;16.89;84.06
73860;BME280;62197;51.632;13.700;2022-07-23T04:18:47;100383.81;;;16.96;83.43
73860;BME280;62197;51.632;13.700;2022-07-23T04:21:12;100390.84;;;16.83;83.75
73860;BME280;62197;51.632;13.700;2022-07-23T04:23:38;100381.34;;;16.89;84.05
73860;BME280;62197;51.632;13.700;2022-07-23T04:26:03;100375.53;;;16.86;84.67
73860;BME280;62197;51.632;13.700;2022-07-23T04:28:28;100377.72;;;16.89;84.28
73860;BME280;62197;51.632;13.700;2022-07-23T04:30:56;100372.75;;;16.81;84.74
73860;BME280;62197;51.632;13.700;2022-07-23T04:33:22;100370.53;;;16.73;85.84
73860;BME280;62197;51.632;13.700;2022-07-23T04:35:48;100363.56;;;16.75;85.20
73860;BME280;62197;51.632;13.700;2022-07-23T04:38:13;100358.84;;;16.76;85.60
73860;BME280;62197;51.632;13.700;2022-07-23T04:40:38;100357.16;;;16.80;85.08
73860;BME280;62197;51.632;13.700;2022-07-23T04:43:04;100357.69;;;16.82;84.56
73860;BME280;62197;51.632;13.700;2022-07-23T04:45:30;100364.91;;;16.88;84.22
73860;BME280;62197;51.632;13.700;2022-07-23T04:47:55;100360.50;;;16.77;84.27
73860;BME280;62197;51.632;13.700;2022-07-23T04:50:21;100366.31;;;16.80;84.63
73860;BME280;62197;51.632;13.700;2022-07-23T04:52:48;100370.78;;;16.81;84.10
73860;BME280;62197;51.632;13.700;2022-07-23T04:55:14;100372.44;;;16.87;83.80
73860;BME280;62197;51.632;13.700;2022-07-23T04:57:39;100371.03;;;16.90;83.48
73860;BME280;62197;51.632;13.700;2022-07-23T05:00:04;100367.38;;;16.94;82.80
73860;BME280;62197;51.632;13.700;2022-07-23T05:02:30;100363.22;;;16.92;82.92
73860;BME280;62197;51.632;13.700;2022-07-23T05:04:55;100361.50;;;17.01;82.53
73860;BME280;62197;51.632;13.700;2022-07-23T05:07:21;100374.31;;;17.02;82.44
73860;BME280;62197;51.632;13.700;2022-07-23T05:09:46;100371.78;;;17.05;81.96
73860;BME280;62197;51.632;13.700;2022-07-23T05:12:11;100367.03;;;17.06;82.06
73860;BME280;62197;51.632;13.700;2022-07-23T05:14:37;100362.91;;;16.98;82.16
73860;BME280;62197;51.632;13.700;2022-07-23T05:17:02;100353.75;;;16.93;82.00
73860;BME280;62197;51.632;13.700;2022-07-23T05:19:27;100357.59;;;17.02;81.57
73860;BME280;62197;51.632;13.700;2022-07-23T05:21:53;100362.06;;;17.03;81.46
73860;BME280;62197;51.632;13.700;2022-07-23T05:24:18;100363.06;;;17.17;80.73
73860;BME280;62197;51.632;13.700;2022-07-23T05:26:43;100355.88;;;17.11;80.52
73860;BME280;62197;51.632;13.700;2022-07-23T05:29:09;100375.31;;;17.21;80.01
73860;BME280;62197;51.632;13.700;2022-07-23T05:31:34;100394.03;;;17.15;79.73
73860;BME280;62197;51.632;13.700;2022-07-23T05:33:59;100384.84;;;17.20;79.08
73860;BME280;62197;51.632;13.700;2022-07-23T05:36:25;100387.03;;;17.23;78.45
73860;BME280;62197;51.632;13.700;2022-07-23T05:38:50;100382.59;;;17.17;78.72
73860;BME280;62197;51.632;13.700;2022-07-23T05:41:15;100375.88;;;17.23;78.34
73860;BME280;62197;51.632;13.700;2022-07-23T05:43:41;100366.66;;;17.28;78.55
73860;BME280;62197;51.632;13.700;2022-07-23T05:46:06;100383.34;;;17.38;77.86
73860;BME280;62197;51.632;13.700;2022-07-23T05:48:31;100402.25;;;17.46;76.64
73860;BME280;62197;51.632;13.700;2022-07-23T05:50:57;100411.19;;;17.48;76.38
73860;BME280;62197;51.632;13.700;2022-07-23T05:53:22;100424.28;;;17.47;76.17
73860;BME280;62197;51.632;13.700;2022-07-23T05:55:47;100432.09;;;17.50;75.97
73860;BME280;62197;51.632;13.700;2022-07-23T05:58:13;100439.31;;;17.56;75.56
73860;BME280;62197;51.632;13.700;2022-07-23T06:00:38;100441.81;;;17.63;75.75
73860;BME280;62197;51.632;13.700;2022-07-23T06:03:03;100436.72;;;17.70;75.26
73860;BME280;62197;51.632;13.700;2022-07-23T06:05:29;100438.13;;;17.67;74.15
73860;BME280;62197;51.632;13.700;2022-07-23T06:07:54;100440.03;;;17.77;73.94
73860;BME280;62197;51.632;13.700;2022-07-23T06:10:19;100453.66;;;17.83;72.43
73860;BME280;62197;51.632;13.700;2022-07-23T06:12:45;100460.38;;;17.82;72.64
73860;BME280;62197;51.632;13.700;2022-07-23T06:15:11;100460.09;;;17.84;72.86
73860;BME280;62197;51.632;13.700;2022-07-23T06:17:36;100461.94;;;17.98;72.17
73860;BME280;62197;51.632;13.700;2022-07-23T06:20:08;100461.91;;;18.03;71.90
73860;BME280;62197;51.632;13.700;2022-07-23T06:22:34;100478.88;;;18.12;72.08
73860;BME280;62197;51.632;13.700;2022-07-23T06:25:00;100459.00;;;18.19;71.60
73860;BME280;62197;51.632;13.700;2022-07-23T06:27:25;100448.72;;;18.43;70.45
73860;BME280;62197;51.632;13.700;2022-07-23T06:29:50;100424.47;;;18.38;71.12
73860;BME280;62197;51.632;13.700;2022-07-23T06:32:16;100434.63;;;18.58;70.75
73860;BME280;62197;51.632;13.700;2022-07-23T06:34:41;100430.91;;;18.67;70.16
73860;BME280;62197;51.632;13.700;2022-07-23T06:37:06;100420.16;;;18.51;71.12
73860;BME280;62197;51.632;13.700;2022-07-23T06:39:32;100417.97;;;18.48;71.15
73860;BME280;62197;51.632;13.700;2022-07-23T06:41:58;100408.91;;;18.27;71.74
73860;BME280;62197;51.632;13.700;2022-07-23T06:44:23;100419.34;;;18.17;73.03
73860;BME280;62197;51.632;13.700;2022-07-23T06:46:48;100414.59;;;18.17;75.48
73860;BME280;62197;51.632;13.700;2022-07-23T06:49:14;100415.16;;;18.14;76.73
73860;BME280;62197;51.632;13.700;2022-07-23T06:51:39;100389.69;;;17.92;78.82
73860;BME280;62197;51.632;13.700;2022-07-23T06:54:04;100387.88;;;17.67;78.95
73860;BME280;62197;51.632;13.700;2022-07-23T06:56:30;100390.97;;;17.66;80.03
73860;BME280;62197;51.632;13.700;2022-07-23T06:58:55;100393.56;;;17.57;80.56
73860;BME280;62197;51.632;13.700;2022-07-23T07:01:20;100393.47;;;17.67;80.17
73860;BME280;62197;51.632;13.700;2022-07-23T07:03:46;100386.41;;;17.80;79.25
73860;BME280;62197;51.632;13.700;2022-07-23T07:06:12;100385.88;;;18.12;76.49
73860;BME280;62197;51.632;13.700;2022-07-23T07:08:37;100393.81;;;18.57;75.69
73860;BME280;62197;51.632;13.700;2022-07-23T07:11:03;100387.28;;;18.90;74.59
73860;BME280;62197;51.632;13.700;2022-07-23T07:13:28;100385.34;;;18.90;72.89
73860;BME280;62197;51.632;13.700;2022-07-23T07:15:53;100386.63;;;19.22;71.69
73860;BME280;62197;51.632;13.700;2022-07-23T07:18:19;100383.25;;;19.43;70.79
73860;BME280;62197;51.632;13.700;2022-07-23T07:20:44;100381.72;;;19.32;71.32
73860;BME280;62197;51.632;13.700;2022-07-23T07:23:09;100388.03;;;19.43;68.00
73860;BME280;62197;51.632;13.700;2022-07-23T07:25:35;100374.63;;;19.58;68.17
73860;BME280;62197;51.632;13.700;2022-07-23T07:28:00;100373.34;;;19.51;68.86
73860;BME280;62197;51.632;13.700;2022-07-23T07:30:25;100377.91;;;19.98;68.27
73860;BME280;62197;51.632;13.700;2022-07-23T07:32:51;100382.13;;;20.14;66.33
73860;BME280;62197;51.632;13.700;2022-07-23T07:35:16;100385.31;;;20.26;65.53
73860;BME280;62197;51.632;13.700;2022-07-23T07:37:41;100383.66;;;20.38;65.83
73860;BME280;62197;51.632;13.700;2022-07-23T07:40:07;100381.88;;;20.88;65.96
73860;BME280;62197;51.632;13.700;2022-07-23T07:42:33;100363.03;;;21.16;62.86
73860;BME280;62197;51.632;13.700;2022-07-23T07:44:59;100360.84;;;20.58;65.60
73860;BME280;62197;51.632;13.700;2022-07-23T07:47:24;100357.41;;;20.48;65.42
73860;BME280;62197;51.632;13.700;2022-07-23T07:49:50;100342.97;;;20.41;66.46
73860;BME280;62197;51.632;13.700;2022-07-23T07:52:15;100348.69;;;20.36;66.12
73860;BME280;62197;51.632;13.700;2022-07-23T07:54:40;100333.41;;;20.28;66.37
73860;BME280;62197;51.632;13.700;2022-07-23T07:57:06;100338.78;;;20.25;66.86
73860;BME280;62197;51.632;13.700;2022-07-23T07:59:31;100346.09;;;20.39;66.58
73860;BME280;62197;51.632;13.700;2022-07-23T08:01:56;100346.53;;;20.60;65.49
73860;BME280;62197;51.632;13.700;2022-07-23T08:04:22;100349.63;;;20.45;66.66
73860;BME280;62197;51.632;13.700;2022-07-23T08:06:47;100345.56;;;20.37;66.49
73860;BME280;62197;51.632;13.700;2022-07-23T08:09:12;100346.44;;;20.79;65.97
73860;BME280;62197;51.632;13.700;2022-07-23T08:11:38;100346.72;;;20.91;64.86
73860;BME280;62197;51.632;13.700;2022-07-23T08:14:03;100355.47;;;21.03;65.02
73860;BME280;62197;51.632;13.700;2022-07-23T08:16:28;100356.31;;;21.17;65.34
73860;BME280;62197;51.632;13.700;2022-07-23T08:18:54;100360.47;;;21.19;64.70
73860;BME280;62197;51.632;13.700;2022-07-23T08:21:19;100365.59;;;21.39;64.29
73860;BME280;62197;51.632;13.700;2022-07-23T08:23:45;100378.31;;;21.73;63.50
73860;BME280;62197;51.632;13.700;2022-07-23T08:26:10;100380.91;;;21.83;63.05
73860;BME280;62197;51.632;13.700;2022-07-23T08:28:35;100382.72;;;22.01;63.22
73860;BME280;62197;51.632;13.700;2022-07-23T08:31:01;100390.56;;;22.65;61.62
73860;BME280;62197;51.632;13.700;2022-07-23T08:33:26;100394.19;;;22.35;61.26
73860;BME280;62197;51.632;13.700;2022-07-23T08:35:52;100398.28;;;22.07;62.42
73860;BME280;62197;51.632;13.700;2022-07-23T08:38:20;100396.75;;;22.45;61.60
73860;BME280;62197;51.632;13.700;2022-07-23T08:40:54;100386.38;;;22.32;62.30
73860;BME280;62197;51.632;13.700;2022-07-23T08:43:29;100377.56;;;22.25;62.35
73860;BME280;62197;51.632;13.700;2022-07-23T08:45:56;100384.06;;;22.87;62.56
73860;BME280;62197;51.632;13.700;2022-07-23T08:48:23;100393.91;;;23.06;60.30
73860;BME280;62197;51.632;13.700;2022-07-23T08:50:53;100378.13;;;23.45;58.96
73860;BME280;62197;51.632;13.700;2022-07-23T08:53:23;100372.84;;;23.04;59.39
73860;BME280;62197;51.632;13.700;2022-07-23T08:55:51;100381.66;;;22.41;59.92
73860;BME280;62197;51.632;13.700;2022-07-23T08:58:17;100377.72;;;21.98;61.61
73860;BME280;62197;51.632;13.700;2022-07-23T09:00:43;100399.81;;;22.35;62.77
73860;BME280;62197;51.632;13.700;2022-07-23T09:03:21;100399.94;;;22.08;61.82
73860;BME280;62197;51.632;13.700;2022-07-23T09:05:47;100413.13;;;21.99;62.73
73860;BME280;62197;51.632;13.700;2022-07-23T09:08:14;100397.66;;;22.10;61.83
73860;BME280;62197;51.632;13.700;2022-07-23T09:15:56;100426.25;;;21.90;64.28
73860;BME280;62197;51.632;13.700;2022-07-23T09:21:19;100424.78;;;22.14;63.30
73860;BME280;62197;51.632;13.700;2022-07-23T09:23:46;100426.72;;;22.27;63.61
73860;BME280;62197;51.632;13.700;2022-07-23T09:26:21;100429.50;;;22.05;63.93
73860;BME280;62197;51.632;13.700;2022-07-23T09:28:57;100437.69;;;22.82;62.00
73860;BME280;62197;51.632;13.700;2022-07-23T09:31:24;100440.91;;;22.97;61.08
73860;BME280;62197;51.632;13.700;2022-07-23T09:33:50;100430.19;;;22.55;61.98
73860;BME280;62197;51.632;13.700;2022-07-23T09:36:27;100448.38;;;22.71;62.32
73860;BME280;62197;51.632;13.700;2022-07-23T09:38:52;100442.88;;;22.44;63.75
73860;BME280;62197;51.632;13.700;2022-07-23T09:41:18;100435.19;;;21.78;66.29
73860;BME280;62197;51.632;13.700;2022-07-23T09:43:43;100452.31;;;21.54;67.30
73860;BME280;62197;51.632;13.700;2022-07-23T09:48:47;100440.81;;;21.78;66.57
73860;BME280;62197;51.632;13.700;2022-07-23T09:51:13;100446.56;;;22.09;66.65
73860;BME280;62197;51.632;13.700;2022-07-23T09:53:42;100445.41;;;21.88;66.64
73860;BME280;62197;51.632;13.700;2022-07-23T09:56:07;100460.81;;;21.77;66.37
73860;BME280;62197;51.632;13.700;2022-07-23T09:58:35;100460.19;;;21.66;66.79
73860;BME280;62197;51.632;13.700;2022-07-23T10:01:09;100469.19;;;21.27;68.17
73860;BME280;62197;51.632;13.700;2022-07-23T10:03:34;100482.06;;;21.83;66.83
73860;BME280;62197;51.632;13.700;2022-07-23T10:06:00;100477.34;;;21.78;65.45
73860;BME280;62197;51.632;13.700;2022-07-23T10:08:26;100488.47;;;21.97;66.03
73860;BME280;62197;51.632;13.700;2022-07-23T10:10:52;100483.44;;;22.07;65.65
73860;BME280;62197;51.632;13.700;2022-07-23T10:13:19;100481.31;;;22.13;64.70
73860;BME280;62197;51.632;13.700;2022-07-23T10:15:44;100494.75;;;22.38;65.07
73860;BME280;62197;51.632;13.700;2022-07-23T10:18:10;100493.75;;;22.34;64.24
73860;BME280;62197;51.632;13.700;2022-07-23T10:20:38;100505.94;;;22.52;62.94
73860;BME280;62197;51.632;13.700;2022-07-23T10:25:59;100499.31;;;22.48;64.44
73860;BME280;62197;51.632;13.700;2022-07-23T10:31:19;100497.53;;;22.74;62.18
73860;BME280;62197;51.632;13.700;2022-07-23T10:36:44;100502.91;;;22.39;63.00
73860;BME280;62197;51.632;13.700;2022-07-23T10:39:22;100505.16;;;22.51;63.05
73860;BME280;62197;51.632;13.700;2022-07-23T10:41:49;100496.44;;;22.39;63.79
73860;BME280;62197;51.632;13.700;2022-07-23T10:44:20;100493.72;;;23.00;61.56
73860;BME280;62197;51.632;13.700;2022-07-23T10:49:29;100499.00;;;22.71;61.72
73860;BME280;62197;51.632;13.700;2022-07-23T10:54:38;100514.69;;;22.86;60.52
73860;BME280;62197;51.632;13.700;2022-07-23T10:59:31;100515.44;;;22.78;61.43
73860;BME280;62197;51.632;13.700;2022-07-23T11:02:22;100505.00;;;22.34;62.59
73860;BME280;62197;51.632;13.700;2022-07-23T11:04:49;100507.97;;;22.51;62.31
73860;BME280;62197;51.632;13.700;2022-07-23T11:07:15;100500.41;;;22.82;59.82
73860;BME280;62197;51.632;13.700;2022-07-23T11:09:42;100498.84;;;22.32;62.31
73860;BME280;62197;51.632;13.700;2022-07-23T11:17:24;100499.53;;;22.51;61.71
73860;BME280;62197;51.632;13.700;2022-07-23T11:25:01;100504.00;;;22.16;64.04
73860;BME280;62197;51.632;13.700;2022-07-23T11:27:37;100510.47;;;21.54;64.75
73860;BME280;62197;51.632;13.700;2022-07-23T11:30:03;100507.66;;;21.68;64.39
73860;BME280;62197;51.632;13.700;2022-07-23T11:32:32;100508.97;;;21.02;65.79
73860;BME280;62197;51.632;13.700;2022-07-23T11:34:59;100519.50;;;20.78;67.19
73860;BME280;62197;51.632;13.700;2022-07-23T11:37:38;100531.16;;;20.53;67.65
73860;BME280;62197;51.632;13.700;2022-07-23T11:40:09;100525.19;;;20.73;66.86
73860;BME280;62197;51.632;13.700;2022-07-23T11:42:39;100528.88;;;20.55;67.72
73860;BME280;62197;51.632;13.700;2022-07-23T11:45:15;100537.81;;;20.57;68.39
73860;BME280;62197;51.632;13.700;2022-07-23T11:47:40;100533.09;;;20.71;66.84
73860;BME280;62197;51.632;13.700;2022-07-23T11:50:06;100527.75;;;20.88;66.65
73860;BME280;62197;51.632;13.700;2022-07-23T11:52:32;100532.63;;;20.83;66.08
73860;BME280;62197;51.632;13.700;2022-07-23T11:55:00;100520.63;;;20.45;67.00
73860;BME280;62197;51.632;13.700;2022-07-23T11:57:28;100534.88;;;20.48;67.18
73860;BME280;62197;51.632;13.700;2022-07-23T11:59:57;100538.88;;;20.61;67.34
73860;BME280;62197;51.632;13.700;2022-07-23T12:02:23;100540.09;;;20.55;66.54
73860;BME280;62197;51.632;13.700;2022-07-23T12:04:50;100535.19;;;20.47;66.80
73860;BME280;62197;51.632;13.700;2022-07-23T12:07:35;100532.03;;;20.67;66.21
73860;BME280;62197;51.632;13.700;2022-07-23T12:10:16;100526.19;;;20.63;65.78
73860;BME280;62197;51.632;13.700;2022-07-23T12:12:44;100522.88;;;20.61;65.08
73860;BME280;62197;51.632;13.700;2022-07-23T12:15:12;100518.94;;;20.62;64.52
73860;BME280;62197;51.632;13.700;2022-07-23T12:17:39;100533.09;;;20.71;64.32
73860;BME280;62197;51.632;13.700;2022-07-23T12:20:07;100531.84;;;20.77;63.67
73860;BME280;62197;51.632;13.700;2022-07-23T12:22:38;100524.78;;;20.80;64.33
73860;BME280;62197;51.632;13.700;2022-07-23T12:25:07;100522.25;;;20.64;63.20
73860;BME280;62197;51.632;13.700;2022-07-23T12:27:33;100521.69;;;21.13;62.43
73860;BME280;62197;51.632;13.700;2022-07-23T12:29:58;100514.03;;;22.09;58.18
73860;BME280;62197;51.632;13.700;2022-07-23T12:32:28;100520.53;;;23.28;55.17
73860;BME280;62197;51.632;13.700;2022-07-23T12:35:08;100519.56;;;23.02;55.40
73860;BME280;62197;51.632;13.700;2022-07-23T12:37:35;100522.97;;;22.69;56.38
73860;BME280;62197;51.632;13.700;2022-07-23T12:43:03;100521.25;;;22.81;55.49
73860;BME280;62197;51.632;13.700;2022-07-23T12:45:54;100527.41;;;22.83;56.14
73860;BME280;62197;51.632;13.700;2022-07-23T12:48:28;100511.91;;;22.94;56.27
73860;BME280;62197;51.632;13.700;2022-07-23T12:50:58;100519.06;;;22.56;56.23
73860;BME280;62197;51.632;13.700;2022-07-23T12:56:01;100516.38;;;22.95;54.67
73860;BME280;62197;51.632;13.700;2022-07-23T12:58:42;100518.00;;;23.58;52.38
73860;BME280;62197;51.632;13.700;2022-07-23T13:01:08;100510.72;;;24.56;48.82
73860;BME280;62197;51.632;13.700;2022-07-23T13:03:41;100509.84;;;25.82;46.29
73860;BME280;62197;51.632;13.700;2022-07-23T13:06:10;100507.66;;;25.50;46.15
73860;BME280;62197;51.632;13.700;2022-07-23T13:08:37;100508.03;;;26.27;44.22
73860;BME280;62197;51.632;13.700;2022-07-23T13:11:04;100522.31;;;26.72;42.11
73860;BME280;62197;51.632;13.700;2022-07-23T13:13:32;100509.59;;;26.78;41.26
73860;BME280;62197;51.632;13.700;2022-07-23T13:15:59;100518.41;;;27.54;41.38
73860;BME280;62197;51.632;13.700;2022-07-23T13:18:25;100521.81;;;26.29;43.79
73860;BME280;62197;51.632;13.700;2022-07-23T13:20:51;100523.31;;;24.67;47.49